Aeroporto :
LOGIN :

Iscrizione | Disclaimer

   EN    FR    IT 

 










Sommario :    VFR   VFR Marginale   IFR   IFR Intensivo   IFR Molto Intensivo
Visibilità : 
Base nubi : 
>= 8 km
>= 3000ft
5 / 8 km
1000 / 3000 ft
1500m / 5 km
500 / 1000 ft
800 / 1500m
200 / 500 ft
< 800m
< 200 ft
Simboli :   Temporali  Nebbia  Neve Forte  Precipitazioni Forti  Vento > 20 kt
SIGMETs :   Varie  Temporali  Ghiacco  Turbolenza  Onda orograficha  Ceneri Vulcaniche






- Altitudine del aeroporto : 121 ft
- Codice IATA : HUY


EGNJ - Humberside

ULTIMO METAR :
  • 150250Z AUTO 35004KT 9999 SCT016/// SCT036/// 06/06 Q1006

METARs OBSOLETI :
  • 150220Z AUTO 01003KT 9999 FEW021/// SCT031/// 06/06 Q1006
  • 150150Z AUTO 34003KT 9999 BKN018/// 05/05 Q1006
  • 150120Z AUTO 35004KT 330V050 9999 FEW019/// 06/06 Q1006
  • 150050Z AUTO 36006KT 9999 FEW005/// SCT010/// BKN014/// 06/06 Q1006
  • 150020Z AUTO 35005KT 9999 BKN012/// OVC026/// 06/06 Q1006

TAF TAF EGNJ
Valido dal 15 a 03 ore il 15 a 12 ore UTC


150203Z 1503/1512 01005KT 9999 FEW014 SCT030
TEMPO 1503/1509 8000 -RA BKN014
BECMG 1509/1512 04015KT
ATIS : +44 1652 682 020



MetMap, La meteo Aeronautica in un colpo d'occhio ! - Copyright ORBIFLY Dicembre 2007 - Disclaimer

ORBIFLY MET'MAP TEAM :

Programmazione e sviluppo : Alexandra Zaïnal
Concezione e sviluppo : Baudouin d'Aumeries
Co-Programmazione e sviluppo : Marc-Olivier Méhu
Supporto tecnico e logistico : Manuel Goepfert
Aiuto per la traduzione : Arnaldo La Scala

Contatto : metmap@orbifly.com




FONTI E CREDITI :

   NOAA